sensor_id;sensor_type;location;lat;lon;timestamp;temperature;humidity
20670;DHT22;10494;50.868;4.180;2024-01-30T00:02:21;10.50;1.00
20670;DHT22;10494;50.868;4.180;2024-01-30T00:04:47;10.60;1.00
20670;DHT22;10494;50.868;4.180;2024-01-30T00:07:12;10.60;1.00
20670;DHT22;10494;50.868;4.180;2024-01-30T00:09:38;10.60;1.00
20670;DHT22;10494;50.868;4.180;2024-01-30T00:12:05;10.50;1.00
20670;DHT22;10494;50.868;4.180;2024-01-30T00:14:31;10.60;1.00
20670;DHT22;10494;50.868;4.180;2024-01-30T00:16:57;10.60;1.00
20670;DHT22;10494;50.868;4.180;2024-01-30T00:19:22;10.60;1.00
20670;DHT22;10494;50.868;4.180;2024-01-30T00:21:48;10.70;99.90
20670;DHT22;10494;50.868;4.180;2024-01-30T00:24:13;10.70;99.90
20670;DHT22;10494;50.868;4.180;2024-01-30T00:26:39;10.70;99.90
20670;DHT22;10494;50.868;4.180;2024-01-30T00:29:05;10.70;99.90
20670;DHT22;10494;50.868;4.180;2024-01-30T00:31:31;10.80;99.90
20670;DHT22;10494;50.868;4.180;2024-01-30T00:33:57;10.80;99.90
20670;DHT22;10494;50.868;4.180;2024-01-30T00:36:23;10.90;1.00
20670;DHT22;10494;50.868;4.180;2024-01-30T00:38:48;10.80;56.30
20670;DHT22;10494;50.868;4.180;2024-01-30T00:41:14;10.80;99.90
20670;DHT22;10494;50.868;4.180;2024-01-30T00:43:40;10.90;99.90
20670;DHT22;10494;50.868;4.180;2024-01-30T00:46:05;10.90;1.00
20670;DHT22;10494;50.868;4.180;2024-01-30T00:48:31;10.90;1.00
20670;DHT22;10494;50.868;4.180;2024-01-30T00:50:57;10.90;1.00
20670;DHT22;10494;50.868;4.180;2024-01-30T00:53:22;11.00;1.00
20670;DHT22;10494;50.868;4.180;2024-01-30T00:55:48;11.10;1.00
20670;DHT22;10494;50.868;4.180;2024-01-30T00:58:13;11.10;99.90
20670;DHT22;10494;50.868;4.180;2024-01-30T01:00:39;11.00;99.90
20670;DHT22;10494;50.868;4.180;2024-01-30T01:03:05;11.00;1.00
20670;DHT22;10494;50.868;4.180;2024-01-30T01:05:31;11.00;1.00
20670;DHT22;10494;50.868;4.180;2024-01-30T01:07:56;11.00;1.00
20670;DHT22;10494;50.868;4.180;2024-01-30T01:10:22;11.10;1.00
20670;DHT22;10494;50.868;4.180;2024-01-30T01:12:48;11.10;99.90
20670;DHT22;10494;50.868;4.180;2024-01-30T01:15:14;11.00;1.00
20670;DHT22;10494;50.868;4.180;2024-01-30T01:17:40;11.00;1.00
20670;DHT22;10494;50.868;4.180;2024-01-30T01:20:06;10.90;1.00
20670;DHT22;10494;50.868;4.180;2024-01-30T01:22:32;10.90;1.00
20670;DHT22;10494;50.868;4.180;2024-01-30T01:24:58;10.90;1.00
20670;DHT22;10494;50.868;4.180;2024-01-30T01:27:24;10.80;1.00
20670;DHT22;10494;50.868;4.180;2024-01-30T01:29:50;10.80;1.00
20670;DHT22;10494;50.868;4.180;2024-01-30T01:32:16;10.80;1.00
20670;DHT22;10494;50.868;4.180;2024-01-30T01:34:42;10.80;1.00
20670;DHT22;10494;50.868;4.180;2024-01-30T01:37:07;10.80;1.00
20670;DHT22;10494;50.868;4.180;2024-01-30T01:39:33;10.80;3.30
20670;DHT22;10494;50.868;4.180;2024-01-30T01:41:58;10.80;1.00
20670;DHT22;10494;50.868;4.180;2024-01-30T01:44:24;10.80;1.00
20670;DHT22;10494;50.868;4.180;2024-01-30T01:46:51;10.80;1.00
20670;DHT22;10494;50.868;4.180;2024-01-30T01:49:17;10.70;1.00
20670;DHT22;10494;50.868;4.180;2024-01-30T01:51:45;10.70;36.10
20670;DHT22;10494;50.868;4.180;2024-01-30T01:54:13;10.70;1.00
20670;DHT22;10494;50.868;4.180;2024-01-30T01:56:39;10.70;99.90
20670;DHT22;10494;50.868;4.180;2024-01-30T01:59:06;10.80;1.00
20670;DHT22;10494;50.868;4.180;2024-01-30T02:01:34;10.80;99.90
20670;DHT22;10494;50.868;4.180;2024-01-30T02:04:01;10.80;97.20
20670;DHT22;10494;50.868;4.180;2024-01-30T02:06:27;10.80;90.70
20670;DHT22;10494;50.868;4.180;2024-01-30T02:08:53;10.80;99.90
20670;DHT22;10494;50.868;4.180;2024-01-30T02:11:20;10.80;99.90
20670;DHT22;10494;50.868;4.180;2024-01-30T02:13:46;10.80;99.90
20670;DHT22;10494;50.868;4.180;2024-01-30T02:16:12;10.80;99.90
20670;DHT22;10494;50.868;4.180;2024-01-30T02:18:37;10.80;99.90
20670;DHT22;10494;50.868;4.180;2024-01-30T02:21:07;10.80;1.00
20670;DHT22;10494;50.868;4.180;2024-01-30T02:23:34;10.70;1.00
20670;DHT22;10494;50.868;4.180;2024-01-30T02:25:59;10.70;1.00
20670;DHT22;10494;50.868;4.180;2024-01-30T02:28:26;10.80;1.00
20670;DHT22;10494;50.868;4.180;2024-01-30T02:30:52;10.70;1.00
20670;DHT22;10494;50.868;4.180;2024-01-30T02:33:18;10.70;1.00
20670;DHT22;10494;50.868;4.180;2024-01-30T02:35:43;10.80;1.00
20670;DHT22;10494;50.868;4.180;2024-01-30T02:38:09;10.70;1.00
20670;DHT22;10494;50.868;4.180;2024-01-30T02:40:35;10.80;1.00
20670;DHT22;10494;50.868;4.180;2024-01-30T02:43:02;10.80;1.00
20670;DHT22;10494;50.868;4.180;2024-01-30T02:45:27;10.80;1.00
20670;DHT22;10494;50.868;4.180;2024-01-30T02:47:53;10.70;1.00
20670;DHT22;10494;50.868;4.180;2024-01-30T02:50:19;10.70;1.00
20670;DHT22;10494;50.868;4.180;2024-01-30T02:52:44;10.70;3.50
20670;DHT22;10494;50.868;4.180;2024-01-30T02:55:10;10.80;1.00
20670;DHT22;10494;50.868;4.180;2024-01-30T02:57:36;10.80;1.00
20670;DHT22;10494;50.868;4.180;2024-01-30T03:00:02;10.90;1.00
20670;DHT22;10494;50.868;4.180;2024-01-30T03:02:29;10.90;1.00
20670;DHT22;10494;50.868;4.180;2024-01-30T03:04:55;10.90;1.00
20670;DHT22;10494;50.868;4.180;2024-01-30T03:07:20;11.00;1.00
20670;DHT22;10494;50.868;4.180;2024-01-30T03:09:46;11.00;1.00
20670;DHT22;10494;50.868;4.180;2024-01-30T03:12:11;11.00;1.00
20670;DHT22;10494;50.868;4.180;2024-01-30T03:14:37;10.90;1.00
20670;DHT22;10494;50.868;4.180;2024-01-30T03:17:03;11.00;1.00
20670;DHT22;10494;50.868;4.180;2024-01-30T03:19:28;11.00;99.90
20670;DHT22;10494;50.868;4.180;2024-01-30T03:21:54;11.00;99.90
20670;DHT22;10494;50.868;4.180;2024-01-30T03:24:20;11.10;99.90
20670;DHT22;10494;50.868;4.180;2024-01-30T03:26:46;11.10;99.90
20670;DHT22;10494;50.868;4.180;2024-01-30T03:29:11;11.10;99.90
20670;DHT22;10494;50.868;4.180;2024-01-30T03:31:37;11.10;99.90
20670;DHT22;10494;50.868;4.180;2024-01-30T03:34:03;11.00;99.90
20670;DHT22;10494;50.868;4.180;2024-01-30T03:36:28;11.10;99.90
20670;DHT22;10494;50.868;4.180;2024-01-30T03:38:54;11.10;1.00
20670;DHT22;10494;50.868;4.180;2024-01-30T03:41:19;11.00;1.00
20670;DHT22;10494;50.868;4.180;2024-01-30T03:43:46;10.90;72.60
20670;DHT22;10494;50.868;4.180;2024-01-30T03:46:12;10.90;99.90
20670;DHT22;10494;50.868;4.180;2024-01-30T03:48:38;10.90;99.90
20670;DHT22;10494;50.868;4.180;2024-01-30T03:51:04;10.80;99.90
20670;DHT22;10494;50.868;4.180;2024-01-30T03:53:30;10.80;99.90
20670;DHT22;10494;50.868;4.180;2024-01-30T03:55:56;10.80;99.90
20670;DHT22;10494;50.868;4.180;2024-01-30T03:58:21;10.80;99.90
20670;DHT22;10494;50.868;4.180;2024-01-30T04:00:47;10.80;99.90
20670;DHT22;10494;50.868;4.180;2024-01-30T04:03:14;10.80;1.00
20670;DHT22;10494;50.868;4.180;2024-01-30T04:05:41;10.80;1.00
20670;DHT22;10494;50.868;4.180;2024-01-30T04:08:07;10.80;99.90
20670;DHT22;10494;50.868;4.180;2024-01-30T04:10:33;10.80;1.00
20670;DHT22;10494;50.868;4.180;2024-01-30T04:12:58;10.90;99.90
20670;DHT22;10494;50.868;4.180;2024-01-30T04:15:25;10.80;99.90
20670;DHT22;10494;50.868;4.180;2024-01-30T04:17:50;10.80;99.90
20670;DHT22;10494;50.868;4.180;2024-01-30T04:20:16;10.70;99.90
20670;DHT22;10494;50.868;4.180;2024-01-30T04:22:44;10.70;1.00
20670;DHT22;10494;50.868;4.180;2024-01-30T04:25:10;10.70;1.00
20670;DHT22;10494;50.868;4.180;2024-01-30T04:27:36;10.70;1.00
20670;DHT22;10494;50.868;4.180;2024-01-30T04:30:02;10.70;1.00
20670;DHT22;10494;50.868;4.180;2024-01-30T04:32:28;10.70;1.00
20670;DHT22;10494;50.868;4.180;2024-01-30T04:34:54;10.70;1.00
20670;DHT22;10494;50.868;4.180;2024-01-30T04:37:19;10.80;1.00
20670;DHT22;10494;50.868;4.180;2024-01-30T04:39:45;10.80;99.90
20670;DHT22;10494;50.868;4.180;2024-01-30T04:42:10;10.80;99.90
20670;DHT22;10494;50.868;4.180;2024-01-30T04:44:36;10.80;99.90
20670;DHT22;10494;50.868;4.180;2024-01-30T04:47:01;10.80;99.90
20670;DHT22;10494;50.868;4.180;2024-01-30T04:49:27;10.80;99.90
20670;DHT22;10494;50.868;4.180;2024-01-30T04:51:54;10.80;99.90
20670;DHT22;10494;50.868;4.180;2024-01-30T04:54:20;10.90;99.90
20670;DHT22;10494;50.868;4.180;2024-01-30T04:56:45;10.90;99.90
20670;DHT22;10494;50.868;4.180;2024-01-30T04:59:12;10.90;99.90
20670;DHT22;10494;50.868;4.180;2024-01-30T05:01:37;10.80;99.90
20670;DHT22;10494;50.868;4.180;2024-01-30T05:04:03;10.90;99.90
20670;DHT22;10494;50.868;4.180;2024-01-30T05:06:29;10.80;99.90
20670;DHT22;10494;50.868;4.180;2024-01-30T05:08:55;10.80;99.90
20670;DHT22;10494;50.868;4.180;2024-01-30T05:11:20;10.90;99.90
20670;DHT22;10494;50.868;4.180;2024-01-30T05:13:46;10.80;1.00
20670;DHT22;10494;50.868;4.180;2024-01-30T05:16:12;10.70;1.00
20670;DHT22;10494;50.868;4.180;2024-01-30T05:18:37;10.70;1.00
20670;DHT22;10494;50.868;4.180;2024-01-30T05:21:03;10.80;1.00
20670;DHT22;10494;50.868;4.180;2024-01-30T05:23:29;10.80;1.00
20670;DHT22;10494;50.868;4.180;2024-01-30T05:25:54;10.80;1.00
20670;DHT22;10494;50.868;4.180;2024-01-30T05:28:20;10.80;1.00
20670;DHT22;10494;50.868;4.180;2024-01-30T05:30:46;10.80;1.00
20670;DHT22;10494;50.868;4.180;2024-01-30T05:33:11;10.80;1.00
20670;DHT22;10494;50.868;4.180;2024-01-30T05:35:37;10.80;1.00
20670;DHT22;10494;50.868;4.180;2024-01-30T05:38:03;10.80;1.00
20670;DHT22;10494;50.868;4.180;2024-01-30T05:40:30;10.80;1.00
20670;DHT22;10494;50.868;4.180;2024-01-30T05:42:56;10.70;1.00
20670;DHT22;10494;50.868;4.180;2024-01-30T05:45:21;10.70;1.00
20670;DHT22;10494;50.868;4.180;2024-01-30T05:47:48;10.60;99.90
20670;DHT22;10494;50.868;4.180;2024-01-30T05:50:14;10.60;99.90
20670;DHT22;10494;50.868;4.180;2024-01-30T05:52:40;10.50;99.90
20670;DHT22;10494;50.868;4.180;2024-01-30T05:55:06;10.60;99.90
20670;DHT22;10494;50.868;4.180;2024-01-30T05:57:31;10.60;1.00
20670;DHT22;10494;50.868;4.180;2024-01-30T05:59:57;10.60;99.90
20670;DHT22;10494;50.868;4.180;2024-01-30T06:02:23;10.60;99.90
20670;DHT22;10494;50.868;4.180;2024-01-30T06:04:48;10.60;99.90
20670;DHT22;10494;50.868;4.180;2024-01-30T06:07:14;10.70;99.90
20670;DHT22;10494;50.868;4.180;2024-01-30T06:09:40;10.60;99.90
20670;DHT22;10494;50.868;4.180;2024-01-30T06:12:06;10.70;99.90
20670;DHT22;10494;50.868;4.180;2024-01-30T06:14:32;10.70;99.90
20670;DHT22;10494;50.868;4.180;2024-01-30T06:16:59;10.70;99.90
20670;DHT22;10494;50.868;4.180;2024-01-30T06:19:24;10.70;99.90
20670;DHT22;10494;50.868;4.180;2024-01-30T06:21:50;10.80;42.00
20670;DHT22;10494;50.868;4.180;2024-01-30T06:24:16;10.70;1.00
20670;DHT22;10494;50.868;4.180;2024-01-30T06:26:41;10.80;72.40
20670;DHT22;10494;50.868;4.180;2024-01-30T06:29:07;10.80;43.70
20670;DHT22;10494;50.868;4.180;2024-01-30T06:31:33;10.80;91.80
20670;DHT22;10494;50.868;4.180;2024-01-30T06:33:58;10.80;18.60
20670;DHT22;10494;50.868;4.180;2024-01-30T06:36:24;10.80;51.40
20670;DHT22;10494;50.868;4.180;2024-01-30T06:38:50;10.90;1.00
20670;DHT22;10494;50.868;4.180;2024-01-30T06:41:15;11.00;1.00
20670;DHT22;10494;50.868;4.180;2024-01-30T06:43:41;11.00;1.00
20670;DHT22;10494;50.868;4.180;2024-01-30T06:46:06;11.00;1.00
20670;DHT22;10494;50.868;4.180;2024-01-30T06:48:32;11.00;1.00
20670;DHT22;10494;50.868;4.180;2024-01-30T06:50:58;11.00;1.00
20670;DHT22;10494;50.868;4.180;2024-01-30T06:53:23;11.00;1.00
20670;DHT22;10494;50.868;4.180;2024-01-30T06:55:52;11.00;1.00
20670;DHT22;10494;50.868;4.180;2024-01-30T06:58:17;11.00;1.00
20670;DHT22;10494;50.868;4.180;2024-01-30T07:00:43;11.10;1.00
20670;DHT22;10494;50.868;4.180;2024-01-30T07:03:08;11.10;1.00
20670;DHT22;10494;50.868;4.180;2024-01-30T07:05:34;11.10;1.00
20670;DHT22;10494;50.868;4.180;2024-01-30T07:07:59;11.20;1.00
20670;DHT22;10494;50.868;4.180;2024-01-30T07:10:25;11.20;1.00
20670;DHT22;10494;50.868;4.180;2024-01-30T07:12:51;11.10;1.00
20670;DHT22;10494;50.868;4.180;2024-01-30T07:15:17;11.30;1.00
20670;DHT22;10494;50.868;4.180;2024-01-30T07:17:45;11.30;99.90
20670;DHT22;10494;50.868;4.180;2024-01-30T07:20:11;11.30;1.00
20670;DHT22;10494;50.868;4.180;2024-01-30T07:22:37;11.40;99.90
20670;DHT22;10494;50.868;4.180;2024-01-30T07:25:03;11.30;99.90
20670;DHT22;10494;50.868;4.180;2024-01-30T07:27:28;11.30;99.90
20670;DHT22;10494;50.868;4.180;2024-01-30T07:29:54;11.30;99.90
20670;DHT22;10494;50.868;4.180;2024-01-30T07:32:19;11.30;99.90
20670;DHT22;10494;50.868;4.180;2024-01-30T07:34:45;11.30;75.00
20670;DHT22;10494;50.868;4.180;2024-01-30T07:37:11;11.30;99.90
20670;DHT22;10494;50.868;4.180;2024-01-30T07:39:41;11.40;99.90
20670;DHT22;10494;50.868;4.180;2024-01-30T07:42:06;11.40;99.90
20670;DHT22;10494;50.868;4.180;2024-01-30T07:44:32;11.40;99.90
20670;DHT22;10494;50.868;4.180;2024-01-30T07:46:58;11.50;26.00
20670;DHT22;10494;50.868;4.180;2024-01-30T07:49:23;11.40;30.00
20670;DHT22;10494;50.868;4.180;2024-01-30T07:51:49;11.40;92.90
20670;DHT22;10494;50.868;4.180;2024-01-30T07:54:15;11.40;99.90
20670;DHT22;10494;50.868;4.180;2024-01-30T07:56:41;11.40;99.90
20670;DHT22;10494;50.868;4.180;2024-01-30T07:59:10;11.40;99.90
20670;DHT22;10494;50.868;4.180;2024-01-30T08:01:36;11.40;99.90
20670;DHT22;10494;50.868;4.180;2024-01-30T08:04:02;11.50;99.90
20670;DHT22;10494;50.868;4.180;2024-01-30T08:06:28;11.40;99.90
20670;DHT22;10494;50.868;4.180;2024-01-30T08:08:53;11.40;99.90
20670;DHT22;10494;50.868;4.180;2024-01-30T08:11:22;11.40;99.90
20670;DHT22;10494;50.868;4.180;2024-01-30T08:13:55;11.40;99.90
20670;DHT22;10494;50.868;4.180;2024-01-30T08:16:21;11.40;99.90
20670;DHT22;10494;50.868;4.180;2024-01-30T08:18:46;11.40;1.00
20670;DHT22;10494;50.868;4.180;2024-01-30T08:21:12;11.40;99.90
20670;DHT22;10494;50.868;4.180;2024-01-30T08:23:39;11.50;1.00
20670;DHT22;10494;50.868;4.180;2024-01-30T08:26:05;11.50;1.00
20670;DHT22;10494;50.868;4.180;2024-01-30T08:28:31;11.50;1.00
20670;DHT22;10494;50.868;4.180;2024-01-30T08:30:56;11.40;1.00
20670;DHT22;10494;50.868;4.180;2024-01-30T08:33:22;11.50;1.00
20670;DHT22;10494;50.868;4.180;2024-01-30T08:35:48;11.50;1.00
20670;DHT22;10494;50.868;4.180;2024-01-30T08:38:14;11.50;1.00
20670;DHT22;10494;50.868;4.180;2024-01-30T08:40:40;11.60;1.00
20670;DHT22;10494;50.868;4.180;2024-01-30T08:43:05;11.60;1.00
20670;DHT22;10494;50.868;4.180;2024-01-30T08:45:31;11.70;1.00
20670;DHT22;10494;50.868;4.180;2024-01-30T08:47:57;11.70;1.00
20670;DHT22;10494;50.868;4.180;2024-01-30T08:50:22;11.80;99.90
20670;DHT22;10494;50.868;4.180;2024-01-30T08:52:48;11.80;99.90
20670;DHT22;10494;50.868;4.180;2024-01-30T08:55:14;11.80;99.90
20670;DHT22;10494;50.868;4.180;2024-01-30T08:57:39;11.80;99.90
20670;DHT22;10494;50.868;4.180;2024-01-30T09:00:05;11.80;99.90
20670;DHT22;10494;50.868;4.180;2024-01-30T09:02:34;11.80;1.00
20670;DHT22;10494;50.868;4.180;2024-01-30T09:05:00;11.80;1.00
20670;DHT22;10494;50.868;4.180;2024-01-30T09:07:26;11.80;1.00
20670;DHT22;10494;50.868;4.180;2024-01-30T09:09:51;11.80;99.90
20670;DHT22;10494;50.868;4.180;2024-01-30T09:12:17;11.80;1.00
20670;DHT22;10494;50.868;4.180;2024-01-30T09:14:43;11.80;1.00
20670;DHT22;10494;50.868;4.180;2024-01-30T09:17:10;11.80;1.00
20670;DHT22;10494;50.868;4.180;2024-01-30T09:19:36;11.80;1.00
20670;DHT22;10494;50.868;4.180;2024-01-30T09:22:01;11.80;1.00
20670;DHT22;10494;50.868;4.180;2024-01-30T09:24:28;11.80;1.00
20670;DHT22;10494;50.868;4.180;2024-01-30T09:26:54;11.80;1.00
20670;DHT22;10494;50.868;4.180;2024-01-30T09:29:19;11.80;1.00
20670;DHT22;10494;50.868;4.180;2024-01-30T09:31:45;11.70;47.80
20670;DHT22;10494;50.868;4.180;2024-01-30T09:34:12;11.80;99.90
20670;DHT22;10494;50.868;4.180;2024-01-30T09:36:37;11.80;1.00
20670;DHT22;10494;50.868;4.180;2024-01-30T09:39:03;11.80;99.90
20670;DHT22;10494;50.868;4.180;2024-01-30T09:41:32;11.90;99.90
20670;DHT22;10494;50.868;4.180;2024-01-30T09:43:59;12.00;99.90
20670;DHT22;10494;50.868;4.180;2024-01-30T09:46:28;12.00;99.90
20670;DHT22;10494;50.868;4.180;2024-01-30T09:48:57;12.00;1.00
20670;DHT22;10494;50.868;4.180;2024-01-30T09:51:24;11.90;1.00
20670;DHT22;10494;50.868;4.180;2024-01-30T09:53:51;11.90;1.00
20670;DHT22;10494;50.868;4.180;2024-01-30T09:56:17;11.90;1.00
20670;DHT22;10494;50.868;4.180;2024-01-30T09:58:42;12.10;1.00
20670;DHT22;10494;50.868;4.180;2024-01-30T10:01:08;12.10;1.00
20670;DHT22;10494;50.868;4.180;2024-01-30T10:03:34;12.00;1.00
20670;DHT22;10494;50.868;4.180;2024-01-30T10:06:01;12.00;1.00
20670;DHT22;10494;50.868;4.180;2024-01-30T10:08:27;12.10;1.00
20670;DHT22;10494;50.868;4.180;2024-01-30T10:10:53;12.10;1.00
20670;DHT22;10494;50.868;4.180;2024-01-30T10:13:18;12.30;1.00
20670;DHT22;10494;50.868;4.180;2024-01-30T10:15:44;12.50;99.90
20670;DHT22;10494;50.868;4.180;2024-01-30T10:18:13;12.70;1.00
20670;DHT22;10494;50.868;4.180;2024-01-30T10:20:38;12.70;99.90
20670;DHT22;10494;50.868;4.180;2024-01-30T10:23:04;12.80;7.80
20670;DHT22;10494;50.868;4.180;2024-01-30T10:25:33;12.80;1.00
20670;DHT22;10494;50.868;4.180;2024-01-30T10:27:59;12.90;1.00
20670;DHT22;10494;50.868;4.180;2024-01-30T10:30:26;12.90;1.00
20670;DHT22;10494;50.868;4.180;2024-01-30T10:32:52;13.00;99.90
20670;DHT22;10494;50.868;4.180;2024-01-30T10:35:18;12.90;99.90
20670;DHT22;10494;50.868;4.180;2024-01-30T10:37:44;12.90;92.50
20670;DHT22;10494;50.868;4.180;2024-01-30T10:40:13;12.80;1.00
20670;DHT22;10494;50.868;4.180;2024-01-30T10:42:43;12.70;1.00
20670;DHT22;10494;50.868;4.180;2024-01-30T10:45:12;12.60;99.90
20670;DHT22;10494;50.868;4.180;2024-01-30T10:47:40;12.50;1.00
20670;DHT22;10494;50.868;4.180;2024-01-30T10:50:08;12.50;1.00
20670;DHT22;10494;50.868;4.180;2024-01-30T10:52:34;12.20;99.90
20670;DHT22;10494;50.868;4.180;2024-01-30T10:55:00;12.20;1.00
20670;DHT22;10494;50.868;4.180;2024-01-30T10:57:27;12.10;99.90
20670;DHT22;10494;50.868;4.180;2024-01-30T11:00:04;12.10;1.00
20670;DHT22;10494;50.868;4.180;2024-01-30T11:02:31;12.00;1.00
20670;DHT22;10494;50.868;4.180;2024-01-30T11:04:58;12.20;1.00
20670;DHT22;10494;50.868;4.180;2024-01-30T11:07:29;12.10;99.90
20670;DHT22;10494;50.868;4.180;2024-01-30T11:12:25;12.00;99.90
20670;DHT22;10494;50.868;4.180;2024-01-30T11:15:12;12.20;1.00
20670;DHT22;10494;50.868;4.180;2024-01-30T11:20:30;13.00;99.90
20670;DHT22;10494;50.868;4.180;2024-01-30T11:23:01;13.30;1.00
20670;DHT22;10494;50.868;4.180;2024-01-30T11:25:31;13.40;1.00
20670;DHT22;10494;50.868;4.180;2024-01-30T11:27:57;13.60;99.90
20670;DHT22;10494;50.868;4.180;2024-01-30T11:33:27;13.80;99.90
20670;DHT22;10494;50.868;4.180;2024-01-30T11:35:53;13.70;1.00
20670;DHT22;10494;50.868;4.180;2024-01-30T11:38:19;13.60;1.00
20670;DHT22;10494;50.868;4.180;2024-01-30T11:40:45;13.50;1.00
20670;DHT22;10494;50.868;4.180;2024-01-30T11:43:11;13.40;1.00
20670;DHT22;10494;50.868;4.180;2024-01-30T11:45:37;13.30;1.00
20670;DHT22;10494;50.868;4.180;2024-01-30T11:48:05;13.00;1.00
20670;DHT22;10494;50.868;4.180;2024-01-30T11:50:35;13.00;1.00
20670;DHT22;10494;50.868;4.180;2024-01-30T11:53:01;12.90;1.00
20670;DHT22;10494;50.868;4.180;2024-01-30T11:55:27;12.80;1.00
20670;DHT22;10494;50.868;4.180;2024-01-30T11:57:58;12.90;1.00
20670;DHT22;10494;50.868;4.180;2024-01-30T12:00:24;12.70;1.00
20670;DHT22;10494;50.868;4.180;2024-01-30T12:02:54;12.60;1.00
20670;DHT22;10494;50.868;4.180;2024-01-30T12:05:23;12.40;1.00
20670;DHT22;10494;50.868;4.180;2024-01-30T12:07:49;12.20;32.30
20670;DHT22;10494;50.868;4.180;2024-01-30T12:10:15;12.20;96.00
20670;DHT22;10494;50.868;4.180;2024-01-30T12:12:49;12.20;99.90
20670;DHT22;10494;50.868;4.180;2024-01-30T12:15:15;12.00;99.90
20670;DHT22;10494;50.868;4.180;2024-01-30T12:17:41;11.90;99.90
20670;DHT22;10494;50.868;4.180;2024-01-30T12:20:09;11.90;99.90
20670;DHT22;10494;50.868;4.180;2024-01-30T12:22:42;11.90;99.90
20670;DHT22;10494;50.868;4.180;2024-01-30T12:25:12;12.00;99.90
20670;DHT22;10494;50.868;4.180;2024-01-30T12:27:39;11.80;99.90
20670;DHT22;10494;50.868;4.180;2024-01-30T12:30:09;11.60;99.90
20670;DHT22;10494;50.868;4.180;2024-01-30T12:32:39;11.70;99.90
20670;DHT22;10494;50.868;4.180;2024-01-30T12:35:12;11.70;99.90
20670;DHT22;10494;50.868;4.180;2024-01-30T12:37:39;11.90;99.90
20670;DHT22;10494;50.868;4.180;2024-01-30T12:40:05;12.10;99.90
20670;DHT22;10494;50.868;4.180;2024-01-30T12:42:35;12.30;99.90
20670;DHT22;10494;50.868;4.180;2024-01-30T12:45:05;12.30;99.90
20670;DHT22;10494;50.868;4.180;2024-01-30T12:47:31;12.20;99.90
20670;DHT22;10494;50.868;4.180;2024-01-30T12:49:57;12.20;99.90
20670;DHT22;10494;50.868;4.180;2024-01-30T12:52:24;12.20;99.90
20670;DHT22;10494;50.868;4.180;2024-01-30T12:54:50;12.40;91.80
20670;DHT22;10494;50.868;4.180;2024-01-30T12:57:16;12.50;44.70
20670;DHT22;10494;50.868;4.180;2024-01-30T12:59:43;12.70;1.00
20670;DHT22;10494;50.868;4.180;2024-01-30T13:02:09;12.90;1.00
20670;DHT22;10494;50.868;4.180;2024-01-30T13:04:35;13.20;1.00
20670;DHT22;10494;50.868;4.180;2024-01-30T13:07:02;13.20;1.00
20670;DHT22;10494;50.868;4.180;2024-01-30T13:09:29;13.10;1.00
20670;DHT22;10494;50.868;4.180;2024-01-30T13:11:55;13.20;1.00
20670;DHT22;10494;50.868;4.180;2024-01-30T13:14:20;13.20;1.00
20670;DHT22;10494;50.868;4.180;2024-01-30T13:16:46;13.20;1.00
20670;DHT22;10494;50.868;4.180;2024-01-30T13:19:12;12.90;1.00
20670;DHT22;10494;50.868;4.180;2024-01-30T13:21:37;12.80;1.00
20670;DHT22;10494;50.868;4.180;2024-01-30T13:24:04;12.60;1.00
20670;DHT22;10494;50.868;4.180;2024-01-30T13:26:32;12.50;1.00
20670;DHT22;10494;50.868;4.180;2024-01-30T13:28:57;12.30;1.00
20670;DHT22;10494;50.868;4.180;2024-01-30T13:31:23;12.40;1.00
20670;DHT22;10494;50.868;4.180;2024-01-30T13:33:49;12.40;1.00
20670;DHT22;10494;50.868;4.180;2024-01-30T13:36:14;12.60;1.00
20670;DHT22;10494;50.868;4.180;2024-01-30T13:38:40;12.60;1.00
20670;DHT22;10494;50.868;4.180;2024-01-30T13:41:06;12.60;1.00
20670;DHT22;10494;50.868;4.180;2024-01-30T13:43:31;12.70;1.00
20670;DHT22;10494;50.868;4.180;2024-01-30T13:45:57;12.60;1.00
20670;DHT22;10494;50.868;4.180;2024-01-30T13:48:23;12.50;1.00
20670;DHT22;10494;50.868;4.180;2024-01-30T13:50:48;12.50;1.00
20670;DHT22;10494;50.868;4.180;2024-01-30T13:53:14;12.40;1.00
20670;DHT22;10494;50.868;4.180;2024-01-30T13:55:40;12.20;1.00
20670;DHT22;10494;50.868;4.180;2024-01-30T13:58:06;12.30;1.00
20670;DHT22;10494;50.868;4.180;2024-01-30T14:00:33;12.30;18.80
20670;DHT22;10494;50.868;4.180;2024-01-30T14:02:59;12.20;18.00
20670;DHT22;10494;50.868;4.180;2024-01-30T14:05:25;12.00;81.10
20670;DHT22;10494;50.868;4.180;2024-01-30T14:07:52;12.00;99.90
20670;DHT22;10494;50.868;4.180;2024-01-30T14:10:17;12.00;99.90
20670;DHT22;10494;50.868;4.180;2024-01-30T14:12:43;11.80;99.90
20670;DHT22;10494;50.868;4.180;2024-01-30T14:15:10;11.70;99.90
20670;DHT22;10494;50.868;4.180;2024-01-30T14:17:36;11.50;99.90
20670;DHT22;10494;50.868;4.180;2024-01-30T14:20:03;11.50;99.90
20670;DHT22;10494;50.868;4.180;2024-01-30T14:22:30;11.60;99.90
20670;DHT22;10494;50.868;4.180;2024-01-30T14:24:55;11.50;99.90
20670;DHT22;10494;50.868;4.180;2024-01-30T14:27:22;11.60;99.90
20670;DHT22;10494;50.868;4.180;2024-01-30T14:29:47;11.50;99.90
20670;DHT22;10494;50.868;4.180;2024-01-30T14:32:13;11.50;99.90
20670;DHT22;10494;50.868;4.180;2024-01-30T14:34:38;11.40;99.90
20670;DHT22;10494;50.868;4.180;2024-01-30T14:37:04;11.50;99.90
20670;DHT22;10494;50.868;4.180;2024-01-30T14:39:30;11.50;99.90
20670;DHT22;10494;50.868;4.180;2024-01-30T14:41:56;11.50;99.90
20670;DHT22;10494;50.868;4.180;2024-01-30T14:44:21;11.40;99.90
20670;DHT22;10494;50.868;4.180;2024-01-30T14:46:48;11.40;99.90
20670;DHT22;10494;50.868;4.180;2024-01-30T14:49:14;11.20;99.90
20670;DHT22;10494;50.868;4.180;2024-01-30T14:51:41;11.20;99.90
20670;DHT22;10494;50.868;4.180;2024-01-30T14:54:06;11.20;99.90
20670;DHT22;10494;50.868;4.180;2024-01-30T14:56:32;11.00;99.90
20670;DHT22;10494;50.868;4.180;2024-01-30T14:58:58;11.00;99.90
20670;DHT22;10494;50.868;4.180;2024-01-30T15:01:24;11.10;99.90
20670;DHT22;10494;50.868;4.180;2024-01-30T15:03:50;11.10;99.90
20670;DHT22;10494;50.868;4.180;2024-01-30T15:06:17;11.10;99.90
20670;DHT22;10494;50.868;4.180;2024-01-30T15:08:43;11.20;99.90
20670;DHT22;10494;50.868;4.180;2024-01-30T15:11:08;11.30;99.90
20670;DHT22;10494;50.868;4.180;2024-01-30T15:13:34;11.40;99.90
20670;DHT22;10494;50.868;4.180;2024-01-30T15:16:00;11.40;99.90
20670;DHT22;10494;50.868;4.180;2024-01-30T15:18:28;11.30;99.90
20670;DHT22;10494;50.868;4.180;2024-01-30T15:20:54;11.40;99.90
20670;DHT22;10494;50.868;4.180;2024-01-30T15:23:19;11.20;99.90
20670;DHT22;10494;50.868;4.180;2024-01-30T15:25:45;11.30;99.90
20670;DHT22;10494;50.868;4.180;2024-01-30T15:28:11;11.40;66.40
20670;DHT22;10494;50.868;4.180;2024-01-30T15:30:36;11.30;38.60
20670;DHT22;10494;50.868;4.180;2024-01-30T15:33:02;11.30;85.00
20670;DHT22;10494;50.868;4.180;2024-01-30T15:35:28;11.40;57.90
20670;DHT22;10494;50.868;4.180;2024-01-30T15:37:53;11.30;26.30
20670;DHT22;10494;50.868;4.180;2024-01-30T15:40:19;11.30;34.90